sensor_id;sensor_type;location;lat;lon;timestamp;P1;durP1;ratioP1;P2;durP2;ratioP2
27367;SDS011;14839;48.106;11.618;2024-01-16T05:01:43;0.60;;;0.60;;
27367;SDS011;14839;48.106;11.618;2024-01-16T05:04:09;1.63;;;0.87;;
27367;SDS011;14839;48.106;11.618;2024-01-16T05:06:35;0.77;;;0.43;;
27367;SDS011;14839;48.106;11.618;2024-01-16T05:09:01;2.53;;;0.83;;
27367;SDS011;14839;48.106;11.618;2024-01-16T05:11:28;0.70;;;0.60;;
27367;SDS011;14839;48.106;11.618;2024-01-16T05:13:53;0.83;;;0.77;;
27367;SDS011;14839;48.106;11.618;2024-01-16T05:16:25;0.70;;;0.60;;
27367;SDS011;14839;48.106;11.618;2024-01-16T05:18:52;0.37;;;0.33;;
27367;SDS011;14839;48.106;11.618;2024-01-16T05:21:18;0.70;;;0.70;;
27367;SDS011;14839;48.106;11.618;2024-01-16T05:23:44;0.97;;;0.63;;
27367;SDS011;14839;48.106;11.618;2024-01-16T05:26:10;1.17;;;0.47;;
27367;SDS011;14839;48.106;11.618;2024-01-16T05:28:35;2.90;;;0.63;;
27367;SDS011;14839;48.106;11.618;2024-01-16T05:31:01;0.73;;;0.37;;
27367;SDS011;14839;48.106;11.618;2024-01-16T05:33:27;1.43;;;0.70;;
27367;SDS011;14839;48.106;11.618;2024-01-16T05:35:53;2.17;;;0.47;;
27367;SDS011;14839;48.106;11.618;2024-01-16T05:38:18;1.17;;;0.40;;
27367;SDS011;14839;48.106;11.618;2024-01-16T05:40:44;0.87;;;0.50;;
27367;SDS011;14839;48.106;11.618;2024-01-16T05:43:09;1.73;;;0.80;;
27367;SDS011;14839;48.106;11.618;2024-01-16T05:45:35;0.73;;;0.50;;
27367;SDS011;14839;48.106;11.618;2024-01-16T05:48:00;0.60;;;0.40;;
27367;SDS011;14839;48.106;11.618;2024-01-16T05:50:26;1.00;;;0.47;;
27367;SDS011;14839;48.106;11.618;2024-01-16T05:52:51;2.30;;;0.70;;
27367;SDS011;14839;48.106;11.618;2024-01-16T05:55:17;3.97;;;1.47;;
27367;SDS011;14839;48.106;11.618;2024-01-16T05:57:42;3.00;;;1.40;;
27367;SDS011;14839;48.106;11.618;2024-01-16T06:00:08;2.73;;;0.83;;
27367;SDS011;14839;48.106;11.618;2024-01-16T06:02:35;1.77;;;0.83;;
27367;SDS011;14839;48.106;11.618;2024-01-16T06:05:00;3.00;;;1.67;;
27367;SDS011;14839;48.106;11.618;2024-01-16T06:07:27;1.00;;;0.70;;
27367;SDS011;14839;48.106;11.618;2024-01-16T06:09:53;0.67;;;0.47;;
27367;SDS011;14839;48.106;11.618;2024-01-16T06:12:19;1.43;;;0.77;;
27367;SDS011;14839;48.106;11.618;2024-01-16T06:14:44;0.47;;;0.47;;
27367;SDS011;14839;48.106;11.618;2024-01-16T06:17:10;2.37;;;1.10;;
27367;SDS011;14839;48.106;11.618;2024-01-16T06:19:35;1.30;;;0.70;;
27367;SDS011;14839;48.106;11.618;2024-01-16T06:22:01;1.37;;;0.97;;
27367;SDS011;14839;48.106;11.618;2024-01-16T06:24:27;0.60;;;0.37;;
27367;SDS011;14839;48.106;11.618;2024-01-16T06:26:53;2.57;;;0.97;;
27367;SDS011;14839;48.106;11.618;2024-01-16T06:29:18;0.97;;;0.60;;
27367;SDS011;14839;48.106;11.618;2024-01-16T06:31:44;0.90;;;0.53;;
27367;SDS011;14839;48.106;11.618;2024-01-16T06:34:09;1.83;;;0.87;;
27367;SDS011;14839;48.106;11.618;2024-01-16T06:36:35;4.53;;;0.63;;
27367;SDS011;14839;48.106;11.618;2024-01-16T06:39:00;1.63;;;0.77;;
27367;SDS011;14839;48.106;11.618;2024-01-16T06:41:26;1.17;;;0.93;;
27367;SDS011;14839;48.106;11.618;2024-01-16T06:43:51;4.23;;;0.87;;
27367;SDS011;14839;48.106;11.618;2024-01-16T06:46:17;2.73;;;1.30;;
27367;SDS011;14839;48.106;11.618;2024-01-16T06:48:42;1.13;;;0.80;;
27367;SDS011;14839;48.106;11.618;2024-01-16T06:51:08;0.63;;;0.40;;
27367;SDS011;14839;48.106;11.618;2024-01-16T06:53:35;1.03;;;0.40;;
27367;SDS011;14839;48.106;11.618;2024-01-16T06:56:01;1.17;;;0.40;;
27367;SDS011;14839;48.106;11.618;2024-01-16T06:58:26;4.43;;;0.90;;
27367;SDS011;14839;48.106;11.618;2024-01-16T07:00:52;1.03;;;0.70;;
27367;SDS011;14839;48.106;11.618;2024-01-16T07:03:17;3.80;;;0.77;;
27367;SDS011;14839;48.106;11.618;2024-01-16T07:05:43;0.50;;;0.40;;
27367;SDS011;14839;48.106;11.618;2024-01-16T07:08:09;2.43;;;0.80;;
27367;SDS011;14839;48.106;11.618;2024-01-16T07:10:35;2.90;;;0.87;;
27367;SDS011;14839;48.106;11.618;2024-01-16T07:13:01;11.53;;;0.80;;
27367;SDS011;14839;48.106;11.618;2024-01-16T07:15:27;1.37;;;1.00;;
27367;SDS011;14839;48.106;11.618;2024-01-16T07:17:52;0.70;;;0.60;;
27367;SDS011;14839;48.106;11.618;2024-01-16T07:20:18;0.47;;;0.40;;
27367;SDS011;14839;48.106;11.618;2024-01-16T07:22:44;4.33;;;0.97;;
27367;SDS011;14839;48.106;11.618;2024-01-16T07:25:09;2.00;;;0.93;;
27367;SDS011;14839;48.106;11.618;2024-01-16T07:27:35;4.97;;;1.20;;
27367;SDS011;14839;48.106;11.618;2024-01-16T07:30:01;1.00;;;0.87;;
27367;SDS011;14839;48.106;11.618;2024-01-16T07:32:29;1.23;;;0.43;;
27367;SDS011;14839;48.106;11.618;2024-01-16T07:34:55;0.43;;;0.30;;
27367;SDS011;14839;48.106;11.618;2024-01-16T07:37:20;4.33;;;1.20;;
27367;SDS011;14839;48.106;11.618;2024-01-16T07:39:46;1.83;;;0.60;;
27367;SDS011;14839;48.106;11.618;2024-01-16T07:42:11;3.03;;;0.80;;
27367;SDS011;14839;48.106;11.618;2024-01-16T07:44:37;2.20;;;1.03;;
27367;SDS011;14839;48.106;11.618;2024-01-16T07:47:02;3.40;;;1.60;;
27367;SDS011;14839;48.106;11.618;2024-01-16T07:49:28;1.50;;;0.90;;
27367;SDS011;14839;48.106;11.618;2024-01-16T07:51:54;0.80;;;0.50;;
27367;SDS011;14839;48.106;11.618;2024-01-16T07:54:20;2.97;;;1.43;;
27367;SDS011;14839;48.106;11.618;2024-01-16T07:56:45;3.97;;;1.83;;
27367;SDS011;14839;48.106;11.618;2024-01-16T07:59:11;1.50;;;1.10;;
27367;SDS011;14839;48.106;11.618;2024-01-16T08:01:36;0.83;;;0.83;;
27367;SDS011;14839;48.106;11.618;2024-01-16T08:04:02;1.60;;;1.03;;
27367;SDS011;14839;48.106;11.618;2024-01-16T08:06:28;2.70;;;1.17;;
27367;SDS011;14839;48.106;11.618;2024-01-16T08:08:54;0.90;;;0.70;;
27367;SDS011;14839;48.106;11.618;2024-01-16T08:11:20;1.47;;;1.30;;
27367;SDS011;14839;48.106;11.618;2024-01-16T08:13:45;2.30;;;0.90;;
27367;SDS011;14839;48.106;11.618;2024-01-16T08:16:11;2.67;;;1.00;;
27367;SDS011;14839;48.106;11.618;2024-01-16T08:18:36;1.30;;;0.97;;
27367;SDS011;14839;48.106;11.618;2024-01-16T08:21:02;3.37;;;1.37;;
27367;SDS011;14839;48.106;11.618;2024-01-16T08:23:28;0.77;;;0.67;;
27367;SDS011;14839;48.106;11.618;2024-01-16T08:25:53;3.33;;;1.67;;
27367;SDS011;14839;48.106;11.618;2024-01-16T08:28:19;4.40;;;1.80;;
27367;SDS011;14839;48.106;11.618;2024-01-16T08:30:45;2.17;;;1.30;;
27367;SDS011;14839;48.106;11.618;2024-01-16T08:33:11;4.43;;;1.60;;
27367;SDS011;14839;48.106;11.618;2024-01-16T08:35:37;2.77;;;1.23;;
27367;SDS011;14839;48.106;11.618;2024-01-16T08:38:03;3.30;;;1.33;;
27367;SDS011;14839;48.106;11.618;2024-01-16T08:40:29;4.93;;;1.43;;
27367;SDS011;14839;48.106;11.618;2024-01-16T08:42:55;4.43;;;0.87;;
27367;SDS011;14839;48.106;11.618;2024-01-16T08:45:21;3.40;;;1.37;;
27367;SDS011;14839;48.106;11.618;2024-01-16T08:47:46;2.10;;;0.77;;
27367;SDS011;14839;48.106;11.618;2024-01-16T08:50:12;5.97;;;1.73;;
27367;SDS011;14839;48.106;11.618;2024-01-16T08:52:38;2.23;;;1.77;;
27367;SDS011;14839;48.106;11.618;2024-01-16T08:55:04;2.07;;;0.90;;
27367;SDS011;14839;48.106;11.618;2024-01-16T08:57:30;4.10;;;2.10;;
27367;SDS011;14839;48.106;11.618;2024-01-16T08:59:56;3.67;;;1.20;;
27367;SDS011;14839;48.106;11.618;2024-01-16T09:02:22;5.67;;;1.40;;
27367;SDS011;14839;48.106;11.618;2024-01-16T09:04:47;4.67;;;1.60;;
27367;SDS011;14839;48.106;11.618;2024-01-16T09:07:15;3.50;;;1.60;;
27367;SDS011;14839;48.106;11.618;2024-01-16T09:09:41;2.03;;;1.37;;
27367;SDS011;14839;48.106;11.618;2024-01-16T09:12:08;4.83;;;2.20;;
27367;SDS011;14839;48.106;11.618;2024-01-16T09:14:34;3.23;;;1.97;;
27367;SDS011;14839;48.106;11.618;2024-01-16T09:16:59;2.60;;;1.40;;
27367;SDS011;14839;48.106;11.618;2024-01-16T09:19:25;1.93;;;1.50;;
27367;SDS011;14839;48.106;11.618;2024-01-16T09:21:50;3.73;;;1.97;;
27367;SDS011;14839;48.106;11.618;2024-01-16T09:24:16;3.17;;;1.70;;
27367;SDS011;14839;48.106;11.618;2024-01-16T09:26:42;4.07;;;1.33;;
27367;SDS011;14839;48.106;11.618;2024-01-16T09:29:08;3.13;;;1.57;;
27367;SDS011;14839;48.106;11.618;2024-01-16T09:31:34;4.80;;;1.87;;
27367;SDS011;14839;48.106;11.618;2024-01-16T09:34:00;3.47;;;1.00;;
27367;SDS011;14839;48.106;11.618;2024-01-16T09:36:26;3.57;;;1.57;;
27367;SDS011;14839;48.106;11.618;2024-01-16T09:38:52;1.87;;;0.97;;
27367;SDS011;14839;48.106;11.618;2024-01-16T09:41:17;4.37;;;1.57;;
27367;SDS011;14839;48.106;11.618;2024-01-16T09:43:43;2.67;;;1.40;;
27367;SDS011;14839;48.106;11.618;2024-01-16T09:46:11;1.10;;;1.00;;
27367;SDS011;14839;48.106;11.618;2024-01-16T09:48:37;2.63;;;1.13;;
27367;SDS011;14839;48.106;11.618;2024-01-16T09:51:03;1.77;;;1.20;;
27367;SDS011;14839;48.106;11.618;2024-01-16T09:53:29;1.83;;;1.10;;
27367;SDS011;14839;48.106;11.618;2024-01-16T09:55:54;2.07;;;1.00;;
27367;SDS011;14839;48.106;11.618;2024-01-16T09:58:26;4.77;;;1.43;;
27367;SDS011;14839;48.106;11.618;2024-01-16T10:00:56;1.50;;;1.07;;
27367;SDS011;14839;48.106;11.618;2024-01-16T10:03:22;2.80;;;1.37;;
27367;SDS011;14839;48.106;11.618;2024-01-16T10:05:49;2.07;;;1.20;;
27367;SDS011;14839;48.106;11.618;2024-01-16T10:08:14;2.67;;;1.10;;
27367;SDS011;14839;48.106;11.618;2024-01-16T10:10:40;1.00;;;0.87;;
27367;SDS011;14839;48.106;11.618;2024-01-16T10:13:08;3.80;;;1.40;;
27367;SDS011;14839;48.106;11.618;2024-01-16T10:15:34;2.37;;;1.30;;
27367;SDS011;14839;48.106;11.618;2024-01-16T10:18:00;3.10;;;1.67;;
27367;SDS011;14839;48.106;11.618;2024-01-16T10:20:32;3.10;;;1.30;;
27367;SDS011;14839;48.106;11.618;2024-01-16T10:22:59;3.17;;;1.37;;
27367;SDS011;14839;48.106;11.618;2024-01-16T10:25:24;1.20;;;1.00;;
27367;SDS011;14839;48.106;11.618;2024-01-16T10:28:02;4.20;;;1.33;;
27367;SDS011;14839;48.106;11.618;2024-01-16T10:30:28;1.60;;;0.80;;
27367;SDS011;14839;48.106;11.618;2024-01-16T10:32:54;1.27;;;0.80;;
27367;SDS011;14839;48.106;11.618;2024-01-16T10:35:22;2.53;;;0.80;;
27367;SDS011;14839;48.106;11.618;2024-01-16T10:37:51;1.10;;;0.67;;
27367;SDS011;14839;48.106;11.618;2024-01-16T10:40:22;2.33;;;0.70;;
27367;SDS011;14839;48.106;11.618;2024-01-16T10:42:58;1.97;;;0.77;;
27367;SDS011;14839;48.106;11.618;2024-01-16T10:45:24;3.27;;;1.10;;
27367;SDS011;14839;48.106;11.618;2024-01-16T10:48:00;0.93;;;0.60;;
27367;SDS011;14839;48.106;11.618;2024-01-16T10:50:29;2.80;;;0.90;;
27367;SDS011;14839;48.106;11.618;2024-01-16T10:52:55;1.53;;;0.80;;
27367;SDS011;14839;48.106;11.618;2024-01-16T10:55:25;3.13;;;0.90;;
27367;SDS011;14839;48.106;11.618;2024-01-16T10:57:54;2.10;;;0.80;;
27367;SDS011;14839;48.106;11.618;2024-01-16T11:00:21;2.63;;;0.83;;
27367;SDS011;14839;48.106;11.618;2024-01-16T11:02:50;1.00;;;0.67;;
27367;SDS011;14839;48.106;11.618;2024-01-16T11:05:25;1.40;;;0.80;;
27367;SDS011;14839;48.106;11.618;2024-01-16T11:07:55;2.53;;;0.70;;
27367;SDS011;14839;48.106;11.618;2024-01-16T11:10:23;0.73;;;0.63;;
27367;SDS011;14839;48.106;11.618;2024-01-16T11:12:50;1.83;;;0.77;;
27367;SDS011;14839;48.106;11.618;2024-01-16T11:15:17;0.70;;;0.67;;
27367;SDS011;14839;48.106;11.618;2024-01-16T11:17:44;1.27;;;0.53;;
27367;SDS011;14839;48.106;11.618;2024-01-16T11:20:11;3.20;;;1.20;;
27367;SDS011;14839;48.106;11.618;2024-01-16T11:22:39;1.27;;;0.63;;
27367;SDS011;14839;48.106;11.618;2024-01-16T11:25:07;1.07;;;0.90;;
27367;SDS011;14839;48.106;11.618;2024-01-16T11:27:35;4.13;;;0.90;;
27367;SDS011;14839;48.106;11.618;2024-01-16T11:30:02;0.93;;;0.43;;
27367;SDS011;14839;48.106;11.618;2024-01-16T11:32:38;3.00;;;0.90;;
27367;SDS011;14839;48.106;11.618;2024-01-16T11:35:08;2.47;;;0.80;;
27367;SDS011;14839;48.106;11.618;2024-01-16T11:37:34;0.77;;;0.70;;
27367;SDS011;14839;48.106;11.618;2024-01-16T11:42:49;1.40;;;0.70;;
27367;SDS011;14839;48.106;11.618;2024-01-16T11:50:40;1.07;;;0.53;;
27367;SDS011;14839;48.106;11.618;2024-01-16T11:53:06;1.10;;;0.50;;
27367;SDS011;14839;48.106;11.618;2024-01-16T11:55:32;0.90;;;0.70;;
27367;SDS011;14839;48.106;11.618;2024-01-16T12:00:47;1.03;;;0.60;;
27367;SDS011;14839;48.106;11.618;2024-01-16T12:03:16;0.53;;;0.53;;
27367;SDS011;14839;48.106;11.618;2024-01-16T12:05:54;0.80;;;0.73;;
27367;SDS011;14839;48.106;11.618;2024-01-16T12:08:21;0.60;;;0.33;;
27367;SDS011;14839;48.106;11.618;2024-01-16T12:10:47;0.73;;;0.57;;
27367;SDS011;14839;48.106;11.618;2024-01-16T12:13:15;0.53;;;0.40;;
27367;SDS011;14839;48.106;11.618;2024-01-16T12:15:41;1.10;;;0.60;;
27367;SDS011;14839;48.106;11.618;2024-01-16T12:18:07;1.77;;;0.63;;
27367;SDS011;14839;48.106;11.618;2024-01-16T12:20:34;0.73;;;0.50;;
27367;SDS011;14839;48.106;11.618;2024-01-16T12:23:04;0.50;;;0.50;;
27367;SDS011;14839;48.106;11.618;2024-01-16T12:25:31;1.33;;;0.60;;
27367;SDS011;14839;48.106;11.618;2024-01-16T12:28:02;3.03;;;0.67;;
27367;SDS011;14839;48.106;11.618;2024-01-16T12:30:29;0.87;;;0.40;;
27367;SDS011;14839;48.106;11.618;2024-01-16T12:33:06;0.87;;;0.63;;
27367;SDS011;14839;48.106;11.618;2024-01-16T12:35:41;0.77;;;0.33;;
27367;SDS011;14839;48.106;11.618;2024-01-16T12:38:10;0.90;;;0.50;;
27367;SDS011;14839;48.106;11.618;2024-01-16T12:40:41;1.20;;;0.50;;
27367;SDS011;14839;48.106;11.618;2024-01-16T12:43:08;1.63;;;0.73;;
27367;SDS011;14839;48.106;11.618;2024-01-16T12:45:34;1.00;;;0.50;;
27367;SDS011;14839;48.106;11.618;2024-01-16T12:48:00;1.17;;;0.60;;
27367;SDS011;14839;48.106;11.618;2024-01-16T12:50:29;1.83;;;0.63;;
27367;SDS011;14839;48.106;11.618;2024-01-16T12:53:02;1.67;;;0.80;;
27367;SDS011;14839;48.106;11.618;2024-01-16T12:55:34;2.30;;;0.60;;
27367;SDS011;14839;48.106;11.618;2024-01-16T12:58:13;0.67;;;0.50;;
27367;SDS011;14839;48.106;11.618;2024-01-16T13:00:54;1.60;;;0.67;;
27367;SDS011;14839;48.106;11.618;2024-01-16T13:03:24;1.33;;;0.83;;
27367;SDS011;14839;48.106;11.618;2024-01-16T13:05:56;0.83;;;0.70;;
27367;SDS011;14839;48.106;11.618;2024-01-16T13:08:23;0.80;;;0.50;;
27367;SDS011;14839;48.106;11.618;2024-01-16T13:13:28;1.53;;;0.73;;
27367;SDS011;14839;48.106;11.618;2024-01-16T13:15:54;1.50;;;1.10;;
27367;SDS011;14839;48.106;11.618;2024-01-16T13:18:22;8.93;;;3.27;;
27367;SDS011;14839;48.106;11.618;2024-01-16T13:20:50;1.53;;;0.93;;
27367;SDS011;14839;48.106;11.618;2024-01-16T13:23:17;1.10;;;0.80;;
27367;SDS011;14839;48.106;11.618;2024-01-16T13:25:43;0.67;;;0.57;;
27367;SDS011;14839;48.106;11.618;2024-01-16T13:28:11;0.67;;;0.60;;
27367;SDS011;14839;48.106;11.618;2024-01-16T13:30:41;0.93;;;0.40;;
27367;SDS011;14839;48.106;11.618;2024-01-16T13:33:10;0.90;;;0.70;;
27367;SDS011;14839;48.106;11.618;2024-01-16T13:35:39;1.30;;;0.60;;
27367;SDS011;14839;48.106;11.618;2024-01-16T13:38:06;2.73;;;1.00;;
27367;SDS011;14839;48.106;11.618;2024-01-16T13:40:33;0.97;;;0.70;;
27367;SDS011;14839;48.106;11.618;2024-01-16T13:43:00;1.03;;;0.67;;
27367;SDS011;14839;48.106;11.618;2024-01-16T13:45:26;1.07;;;0.63;;
27367;SDS011;14839;48.106;11.618;2024-01-16T13:47:53;3.90;;;0.63;;
27367;SDS011;14839;48.106;11.618;2024-01-16T13:50:19;1.50;;;0.80;;
27367;SDS011;14839;48.106;11.618;2024-01-16T13:52:44;0.80;;;0.67;;
27367;SDS011;14839;48.106;11.618;2024-01-16T13:55:10;2.90;;;0.80;;
27367;SDS011;14839;48.106;11.618;2024-01-16T13:57:36;1.47;;;0.70;;
27367;SDS011;14839;48.106;11.618;2024-01-16T14:00:03;1.73;;;0.63;;
27367;SDS011;14839;48.106;11.618;2024-01-16T14:02:29;0.60;;;0.50;;
27367;SDS011;14839;48.106;11.618;2024-01-16T14:04:55;2.87;;;0.60;;
27367;SDS011;14839;48.106;11.618;2024-01-16T14:07:21;1.77;;;0.70;;
27367;SDS011;14839;48.106;11.618;2024-01-16T14:09:47;2.70;;;0.90;;
27367;SDS011;14839;48.106;11.618;2024-01-16T14:12:13;4.10;;;1.07;;
27367;SDS011;14839;48.106;11.618;2024-01-16T14:14:39;1.13;;;0.60;;
27367;SDS011;14839;48.106;11.618;2024-01-16T14:17:06;1.30;;;0.70;;
27367;SDS011;14839;48.106;11.618;2024-01-16T14:19:31;1.60;;;0.70;;
27367;SDS011;14839;48.106;11.618;2024-01-16T14:22:00;1.57;;;0.70;;
27367;SDS011;14839;48.106;11.618;2024-01-16T14:24:25;0.90;;;0.77;;
27367;SDS011;14839;48.106;11.618;2024-01-16T14:26:51;1.33;;;1.07;;
27367;SDS011;14839;48.106;11.618;2024-01-16T14:29:17;6.13;;;2.60;;
27367;SDS011;14839;48.106;11.618;2024-01-16T14:31:43;6.57;;;2.63;;
27367;SDS011;14839;48.106;11.618;2024-01-16T14:34:12;3.73;;;2.60;;
27367;SDS011;14839;48.106;11.618;2024-01-16T14:36:39;2.23;;;1.70;;
27367;SDS011;14839;48.106;11.618;2024-01-16T14:39:05;4.50;;;1.90;;
27367;SDS011;14839;48.106;11.618;2024-01-16T14:41:31;4.97;;;1.50;;
27367;SDS011;14839;48.106;11.618;2024-01-16T14:43:57;4.80;;;1.07;;
27367;SDS011;14839;48.106;11.618;2024-01-16T14:46:23;7.00;;;1.20;;
27367;SDS011;14839;48.106;11.618;2024-01-16T14:48:48;0.77;;;0.70;;
27367;SDS011;14839;48.106;11.618;2024-01-16T14:51:14;2.50;;;0.80;;
27367;SDS011;14839;48.106;11.618;2024-01-16T14:53:39;6.20;;;1.30;;
27367;SDS011;14839;48.106;11.618;2024-01-16T14:56:05;1.93;;;0.93;;
27367;SDS011;14839;48.106;11.618;2024-01-16T14:58:30;1.67;;;1.10;;
27367;SDS011;14839;48.106;11.618;2024-01-16T15:00:57;3.30;;;1.37;;
27367;SDS011;14839;48.106;11.618;2024-01-16T15:03:23;1.03;;;0.90;;
27367;SDS011;14839;48.106;11.618;2024-01-16T15:05:49;9.40;;;1.97;;
27367;SDS011;14839;48.106;11.618;2024-01-16T15:08:16;3.47;;;1.23;;
27367;SDS011;14839;48.106;11.618;2024-01-16T15:10:41;3.13;;;1.40;;
27367;SDS011;14839;48.106;11.618;2024-01-16T15:13:07;3.07;;;1.33;;
27367;SDS011;14839;48.106;11.618;2024-01-16T15:15:33;2.70;;;0.83;;
27367;SDS011;14839;48.106;11.618;2024-01-16T15:17:59;2.63;;;1.17;;
27367;SDS011;14839;48.106;11.618;2024-01-16T15:20:24;3.30;;;1.50;;
27367;SDS011;14839;48.106;11.618;2024-01-16T15:22:50;3.10;;;1.47;;
27367;SDS011;14839;48.106;11.618;2024-01-16T15:25:18;5.80;;;1.10;;
27367;SDS011;14839;48.106;11.618;2024-01-16T15:27:46;2.57;;;1.07;;
27367;SDS011;14839;48.106;11.618;2024-01-16T15:30:18;3.70;;;1.87;;
27367;SDS011;14839;48.106;11.618;2024-01-16T15:32:44;5.60;;;1.20;;
27367;SDS011;14839;48.106;11.618;2024-01-16T15:35:10;9.20;;;1.20;;
27367;SDS011;14839;48.106;11.618;2024-01-16T15:37:36;2.23;;;1.47;;
27367;SDS011;14839;48.106;11.618;2024-01-16T15:40:02;1.87;;;1.00;;
27367;SDS011;14839;48.106;11.618;2024-01-16T15:42:31;4.47;;;1.23;;
27367;SDS011;14839;48.106;11.618;2024-01-16T15:44:57;1.30;;;1.20;;
27367;SDS011;14839;48.106;11.618;2024-01-16T15:47:23;7.10;;;1.43;;
27367;SDS011;14839;48.106;11.618;2024-01-16T15:49:49;1.97;;;1.03;;
27367;SDS011;14839;48.106;11.618;2024-01-16T15:52:14;2.70;;;1.00;;
27367;SDS011;14839;48.106;11.618;2024-01-16T15:54:40;2.40;;;1.53;;
27367;SDS011;14839;48.106;11.618;2024-01-16T15:57:06;1.53;;;1.10;;
27367;SDS011;14839;48.106;11.618;2024-01-16T15:59:32;4.63;;;1.57;;
27367;SDS011;14839;48.106;11.618;2024-01-16T16:01:58;1.23;;;0.90;;
27367;SDS011;14839;48.106;11.618;2024-01-16T16:04:23;12.77;;;2.07;;
27367;SDS011;14839;48.106;11.618;2024-01-16T16:06:49;2.73;;;1.10;;
27367;SDS011;14839;48.106;11.618;2024-01-16T16:09:15;5.07;;;1.07;;
27367;SDS011;14839;48.106;11.618;2024-01-16T16:11:42;2.60;;;1.40;;
27367;SDS011;14839;48.106;11.618;2024-01-16T16:14:13;3.17;;;1.17;;
27367;SDS011;14839;48.106;11.618;2024-01-16T16:16:42;3.70;;;1.23;;
27367;SDS011;14839;48.106;11.618;2024-01-16T16:19:08;3.97;;;1.60;;
27367;SDS011;14839;48.106;11.618;2024-01-16T16:21:34;5.23;;;1.10;;
27367;SDS011;14839;48.106;11.618;2024-01-16T16:24:00;7.93;;;1.90;;
27367;SDS011;14839;48.106;11.618;2024-01-16T16:26:30;3.73;;;1.50;;
27367;SDS011;14839;48.106;11.618;2024-01-16T16:29:00;5.23;;;1.90;;
27367;SDS011;14839;48.106;11.618;2024-01-16T16:31:27;7.17;;;1.87;;
27367;SDS011;14839;48.106;11.618;2024-01-16T16:33:55;8.23;;;3.20;;
27367;SDS011;14839;48.106;11.618;2024-01-16T16:36:22;9.67;;;2.37;;
27367;SDS011;14839;48.106;11.618;2024-01-16T16:38:47;9.73;;;2.27;;
27367;SDS011;14839;48.106;11.618;2024-01-16T16:41:14;5.30;;;2.33;;
27367;SDS011;14839;48.106;11.618;2024-01-16T16:43:40;4.67;;;2.43;;
27367;SDS011;14839;48.106;11.618;2024-01-16T16:46:06;3.67;;;2.07;;
27367;SDS011;14839;48.106;11.618;2024-01-16T16:48:31;5.67;;;2.23;;
27367;SDS011;14839;48.106;11.618;2024-01-16T16:50:59;6.40;;;2.50;;
27367;SDS011;14839;48.106;11.618;2024-01-16T16:53:24;3.50;;;1.93;;
27367;SDS011;14839;48.106;11.618;2024-01-16T16:55:50;2.97;;;1.70;;
27367;SDS011;14839;48.106;11.618;2024-01-16T16:58:15;2.37;;;1.77;;
27367;SDS011;14839;48.106;11.618;2024-01-16T17:00:41;2.53;;;1.70;;
27367;SDS011;14839;48.106;11.618;2024-01-16T17:03:07;4.67;;;2.33;;
27367;SDS011;14839;48.106;11.618;2024-01-16T17:05:33;5.03;;;2.60;;
27367;SDS011;14839;48.106;11.618;2024-01-16T17:08:01;4.43;;;1.97;;
27367;SDS011;14839;48.106;11.618;2024-01-16T17:10:27;2.43;;;1.60;;
27367;SDS011;14839;48.106;11.618;2024-01-16T17:12:52;7.17;;;3.60;;
27367;SDS011;14839;48.106;11.618;2024-01-16T17:15:18;8.47;;;2.60;;
27367;SDS011;14839;48.106;11.618;2024-01-16T17:17:44;6.97;;;2.80;;
27367;SDS011;14839;48.106;11.618;2024-01-16T17:20:10;4.50;;;2.10;;
27367;SDS011;14839;48.106;11.618;2024-01-16T17:22:39;3.00;;;1.83;;
27367;SDS011;14839;48.106;11.618;2024-01-16T17:25:05;3.93;;;2.57;;
27367;SDS011;14839;48.106;11.618;2024-01-16T17:27:31;4.13;;;2.53;;
27367;SDS011;14839;48.106;11.618;2024-01-16T17:29:57;4.60;;;3.17;;
27367;SDS011;14839;48.106;11.618;2024-01-16T17:32:23;4.27;;;2.13;;
27367;SDS011;14839;48.106;11.618;2024-01-16T17:34:48;4.07;;;2.37;;
27367;SDS011;14839;48.106;11.618;2024-01-16T17:37:14;4.30;;;2.33;;
27367;SDS011;14839;48.106;11.618;2024-01-16T17:39:40;4.10;;;2.00;;
27367;SDS011;14839;48.106;11.618;2024-01-16T17:42:07;4.40;;;2.77;;
27367;SDS011;14839;48.106;11.618;2024-01-16T17:44:34;5.17;;;1.63;;
27367;SDS011;14839;48.106;11.618;2024-01-16T17:47:11;3.90;;;2.30;;
27367;SDS011;14839;48.106;11.618;2024-01-16T17:49:36;5.80;;;1.37;;
27367;SDS011;14839;48.106;11.618;2024-01-16T17:52:02;5.13;;;1.17;;
27367;SDS011;14839;48.106;11.618;2024-01-16T17:54:28;1.23;;;0.80;;
27367;SDS011;14839;48.106;11.618;2024-01-16T17:56:54;8.27;;;1.40;;
27367;SDS011;14839;48.106;11.618;2024-01-16T17:59:21;4.60;;;1.70;;
27367;SDS011;14839;48.106;11.618;2024-01-16T18:01:51;2.83;;;2.03;;
27367;SDS011;14839;48.106;11.618;2024-01-16T18:04:17;3.80;;;1.50;;
27367;SDS011;14839;48.106;11.618;2024-01-16T18:06:43;2.07;;;1.73;;
27367;SDS011;14839;48.106;11.618;2024-01-16T18:09:08;2.27;;;1.67;;
27367;SDS011;14839;48.106;11.618;2024-01-16T18:11:50;3.97;;;1.93;;
27367;SDS011;14839;48.106;11.618;2024-01-16T18:14:16;4.00;;;1.47;;
27367;SDS011;14839;48.106;11.618;2024-01-16T18:16:42;4.00;;;1.40;;
27367;SDS011;14839;48.106;11.618;2024-01-16T18:19:08;3.33;;;1.50;;
27367;SDS011;14839;48.106;11.618;2024-01-16T18:21:33;3.53;;;1.77;;
27367;SDS011;14839;48.106;11.618;2024-01-16T18:24:00;6.10;;;2.47;;
27367;SDS011;14839;48.106;11.618;2024-01-16T18:26:26;11.07;;;1.93;;
27367;SDS011;14839;48.106;11.618;2024-01-16T18:28:52;2.00;;;1.67;;
27367;SDS011;14839;48.106;11.618;2024-01-16T18:31:19;6.77;;;1.83;;
27367;SDS011;14839;48.106;11.618;2024-01-16T18:33:45;2.97;;;1.83;;
27367;SDS011;14839;48.106;11.618;2024-01-16T18:36:11;4.90;;;1.73;;
27367;SDS011;14839;48.106;11.618;2024-01-16T18:38:37;3.73;;;1.73;;
27367;SDS011;14839;48.106;11.618;2024-01-16T18:41:05;8.20;;;3.30;;
27367;SDS011;14839;48.106;11.618;2024-01-16T18:43:31;3.60;;;2.07;;
27367;SDS011;14839;48.106;11.618;2024-01-16T18:45:57;3.00;;;1.80;;
27367;SDS011;14839;48.106;11.618;2024-01-16T18:48:22;4.73;;;3.50;;
27367;SDS011;14839;48.106;11.618;2024-01-16T18:50:48;6.37;;;4.70;;
27367;SDS011;14839;48.106;11.618;2024-01-16T18:53:19;9.47;;;8.47;;
27367;SDS011;14839;48.106;11.618;2024-01-16T18:55:46;10.17;;;6.00;;
27367;SDS011;14839;48.106;11.618;2024-01-16T18:58:12;6.93;;;4.73;;
27367;SDS011;14839;48.106;11.618;2024-01-16T19:00:37;10.17;;;7.07;;
27367;SDS011;14839;48.106;11.618;2024-01-16T19:03:03;20.33;;;11.07;;
27367;SDS011;14839;48.106;11.618;2024-01-16T19:05:29;8.73;;;6.07;;
27367;SDS011;14839;48.106;11.618;2024-01-16T19:07:55;4.50;;;3.03;;
27367;SDS011;14839;48.106;11.618;2024-01-16T19:10:21;11.97;;;8.47;;
27367;SDS011;14839;48.106;11.618;2024-01-16T19:12:48;6.30;;;4.60;;
27367;SDS011;14839;48.106;11.618;2024-01-16T19:15:15;15.27;;;6.53;;
27367;SDS011;14839;48.106;11.618;2024-01-16T19:17:42;6.80;;;4.73;;
27367;SDS011;14839;48.106;11.618;2024-01-16T19:20:09;4.50;;;3.70;;
27367;SDS011;14839;48.106;11.618;2024-01-16T19:22:36;10.33;;;9.20;;
27367;SDS011;14839;48.106;11.618;2024-01-16T19:25:03;10.97;;;6.63;;
27367;SDS011;14839;48.106;11.618;2024-01-16T19:27:29;7.80;;;6.50;;
27367;SDS011;14839;48.106;11.618;2024-01-16T19:29:55;5.10;;;4.37;;
27367;SDS011;14839;48.106;11.618;2024-01-16T19:32:21;7.30;;;4.57;;
27367;SDS011;14839;48.106;11.618;2024-01-16T19:34:47;7.27;;;2.30;;
27367;SDS011;14839;48.106;11.618;2024-01-16T19:37:12;8.17;;;4.43;;
27367;SDS011;14839;48.106;11.618;2024-01-16T19:39:38;22.80;;;16.20;;
27367;SDS011;14839;48.106;11.618;2024-01-16T19:42:07;20.57;;;12.13;;
27367;SDS011;14839;48.106;11.618;2024-01-16T19:44:33;17.90;;;13.57;;